Time;durP1;ratioP1;P1;durP2;ratioP2;P2;SDS_P1;SDS_P2;PMS_P1;PMS_P2;Temp;Humidity;BMP_temperature;BMP_pressure;BME280_temperature;BME280_humidity;BME280_pressure;Samples;Min_cycle;Max_cycle;Signal;HPM_P1;HPM_P2
2023/06/15 00:01:06;;;;;;;4.53;2.78;;;;;;;21.06;24.96;101365.38;5058576;28;20039;-77
2023/06/15 00:03:34;;;;;;;3.65;2.38;;;;;;;21.04;24.87;101355.50;5062291;28;20545;-78
2023/06/15 00:06:04;;;;;;;4.35;2.53;;;;;;;21.03;24.81;101362.97;5065460;28;20350;-77
2023/06/15 00:08:32;;;;;;;4.13;2.47;;;;;;;20.99;25.22;101364.44;5062090;28;20044;-77
2023/06/15 00:11:00;;;;;;;4.18;2.60;;;;;;;20.96;25.30;101363.94;5054211;28;20182;-77
2023/06/15 00:13:28;;;;;;;4.35;2.50;;;;;;;20.95;24.95;101368.63;5057788;28;20443;-78
2023/06/15 00:15:56;;;;;;;3.83;2.45;;;;;;;20.92;25.17;101363.47;5058722;28;20079;-77
2023/06/15 00:18:25;;;;;;;3.60;2.58;;;;;;;20.91;25.25;101364.53;5056982;28;20260;-78
2023/06/15 00:20:55;;;;;;;6.78;2.60;;;;;;;20.90;25.45;101368.34;5062380;28;20044;-78
2023/06/15 00:23:26;;;;;;;3.22;2.30;;;;;;;20.90;25.35;101364.69;5076285;28;20068;-78
2023/06/15 00:25:56;;;;;;;3.50;2.45;;;;;;;20.87;25.36;101367.84;5061405;28;20110;-78
2023/06/15 00:28:25;;;;;;;3.22;2.35;;;;;;;20.86;25.65;101371.72;5055379;28;20071;-77
2023/06/15 00:30:53;;;;;;;3.95;2.97;;;;;;;20.86;25.52;101368.94;5058617;28;20052;-78
2023/06/15 00:33:21;;;;;;;3.42;2.25;;;;;;;20.85;25.49;101372.78;5079455;28;20083;-77
2023/06/15 00:35:50;;;;;;;4.60;2.67;;;;;;;20.84;25.56;101374.69;5078139;28;20052;-77
2023/06/15 00:38:18;;;;;;;3.78;2.50;;;;;;;20.82;25.60;101376.78;5059213;28;20037;-77
2023/06/15 00:40:49;;;;;;;3.65;2.35;;;;;;;20.83;25.75;101377.66;5059505;28;20491;-77
2023/06/15 00:43:18;;;;;;;5.45;2.65;;;;;;;20.80;25.37;101378.00;5057445;28;20049;-78
2023/06/15 00:45:46;;;;;;;4.63;2.50;;;;;;;20.77;25.40;101379.28;5063975;28;20048;-77
2023/06/15 00:48:15;;;;;;;4.53;2.60;;;;;;;20.74;25.83;101379.66;5062212;28;20052;-77
2023/06/15 00:50:43;;;;;;;3.78;2.60;;;;;;;20.70;25.57;101381.91;5058143;28;20565;-78
2023/06/15 00:53:12;;;;;;;4.30;2.92;;;;;;;20.66;25.70;101379.72;5060754;28;20045;-78
2023/06/15 00:55:42;;;;;;;4.55;2.78;;;;;;;20.64;26.08;101384.59;5060677;28;20049;-79
2023/06/15 00:58:11;;;;;;;4.97;3.10;;;;;;;20.60;26.14;101392.47;5061958;28;20508;-78
2023/06/15 01:00:39;;;;;;;4.57;2.90;;;;;;;20.55;25.94;101381.00;5057111;28;20048;-77
2023/06/15 01:03:07;;;;;;;4.50;2.72;;;;;;;20.51;26.09;101376.88;5064193;28;20055;-77
2023/06/15 01:05:36;;;;;;;5.32;3.00;;;;;;;20.45;25.85;101379.53;5056513;28;20045;-78
2023/06/15 01:08:05;;;;;;;4.47;2.88;;;;;;;20.43;26.28;101385.28;5060918;28;20063;-78
2023/06/15 01:10:36;;;;;;;4.13;2.90;;;;;;;20.42;26.24;101391.03;5060923;28;20114;-78
2023/06/15 01:13:07;;;;;;;5.07;2.80;;;;;;;20.39;26.17;101389.47;5062330;28;20098;-77
2023/06/15 01:15:37;;;;;;;4.78;2.75;;;;;;;20.37;26.37;101383.22;5054078;28;20320;-78
2023/06/15 01:18:08;;;;;;;3.92;2.90;;;;;;;20.33;26.33;101390.22;5066546;28;20036;-78
2023/06/15 01:20:39;;;;;;;5.05;2.78;;;;;;;20.31;26.40;101381.19;5058672;28;20116;-78
2023/06/15 01:23:27;;;;;;;3.92;2.40;;;;;;;20.31;26.73;101383.97;5072628;28;20041;-78
2023/06/15 01:26:09;;;;;;;3.78;2.38;;;;;;;20.29;26.67;101389.72;5061381;28;20153;-78
2023/06/15 01:28:40;;;;;;;4.57;2.53;;;;;;;20.24;26.37;101391.34;5054619;28;20612;-77
2023/06/15 01:31:10;;;;;;;4.68;2.88;;;;;;;20.24;26.79;101394.13;5062792;28;20060;-77
2023/06/15 01:33:46;;;;;;;4.35;3.00;;;;;;;20.26;26.75;101386.47;5066010;28;20488;-78
2023/06/15 01:36:15;;;;;;;4.78;2.58;;;;;;;20.22;26.70;101387.88;5060216;28;20037;-77
2023/06/15 01:38:46;;;;;;;4.82;2.50;;;;;;;20.23;26.55;101389.59;5061242;28;20052;-78
2023/06/15 01:41:18;;;;;;;5.95;2.70;;;;;;;20.23;27.05;101389.59;5061032;28;20133;-77
2023/06/15 01:43:47;;;;;;;3.75;2.40;;;;;;;20.19;26.96;101391.91;5061226;28;20441;-79
2023/06/15 01:46:16;;;;;;;4.10;2.80;;;;;;;20.17;26.45;101391.22;5066282;28;20067;-78
2023/06/15 01:48:44;;;;;;;5.03;3.05;;;;;;;20.16;26.96;101399.72;5071225;28;20048;-78
2023/06/15 01:51:12;;;;;;;3.80;2.40;;;;;;;20.14;26.51;101393.47;5064351;28;20045;-78
2023/06/15 01:53:43;;;;;;;4.20;2.95;;;;;;;20.13;27.19;101391.75;5066894;28;20041;-78
2023/06/15 01:56:12;;;;;;;4.18;2.63;;;;;;;20.10;26.58;101390.22;5057085;28;20052;-78
2023/06/15 01:58:41;;;;;;;4.13;2.92;;;;;;;20.10;26.63;101392.13;5079408;28;20091;-78
2023/06/15 02:01:10;;;;;;;4.32;2.90;;;;;;;20.05;26.74;101389.91;5064244;28;20087;-77
2023/06/15 02:03:41;;;;;;;3.67;2.45;;;;;;;20.03;27.35;101397.56;5058238;28;20118;-77
2023/06/15 02:06:11;;;;;;;3.60;2.65;;;;;;;20.00;26.83;101396.03;5056391;28;20055;-78
2023/06/15 02:08:39;;;;;;;4.35;2.60;;;;;;;19.97;26.77;101404.72;5060296;28;20049;-79
2023/06/15 02:11:09;;;;;;;4.20;2.67;;;;;;;19.95;27.19;101397.63;5056534;28;20055;-77
2023/06/15 02:13:37;;;;;;;6.55;3.00;;;;;;;19.92;27.20;101398.84;5062037;28;20049;-78
2023/06/15 02:16:08;;;;;;;3.95;2.63;;;;;;;19.92;26.98;101392.41;5069857;28;20049;-78
2023/06/15 02:18:37;;;;;;;3.78;2.58;;;;;;;19.88;27.39;101397.44;5060268;28;20068;-79
2023/06/15 02:21:05;;;;;;;5.10;2.78;;;;;;;19.86;27.34;101399.56;5057742;28;20060;-78
2023/06/15 02:23:34;;;;;;;4.05;2.42;;;;;;;19.84;27.40;101398.84;5057152;28;20041;-77
2023/06/15 02:26:02;;;;;;;4.28;2.55;;;;;;;19.83;27.40;101404.59;5057393;28;20500;-78
2023/06/15 02:28:31;;;;;;;5.18;3.15;;;;;;;19.81;27.19;101404.75;5058015;28;20036;-78
2023/06/15 02:30:59;;;;;;;5.00;2.95;;;;;;;19.80;27.58;101400.25;5059699;28;20104;-78
2023/06/15 02:33:28;;;;;;;5.53;2.92;;;;;;;19.80;27.68;101400.25;5060650;28;20416;-78
2023/06/15 02:35:56;;;;;;;4.65;2.80;;;;;;;19.78;27.49;101407.94;5062936;28;20052;-78
2023/06/15 02:38:26;;;;;;;4.20;2.83;;;;;;;19.76;27.14;101410.00;5070967;28;20040;-78
2023/06/15 02:40:54;;;;;;;3.78;2.80;;;;;;;19.74;27.34;101403.75;5075228;28;20057;-79
2023/06/15 02:43:22;;;;;;;4.68;2.70;;;;;;;19.74;27.29;101405.69;5069169;28;20040;-78
2023/06/15 02:45:51;;;;;;;3.80;2.50;;;;;;;19.73;27.80;101401.16;5059721;28;20037;-77
2023/06/15 02:48:19;;;;;;;4.10;2.88;;;;;;;19.70;27.18;101399.63;5079357;28;20136;-78
2023/06/15 02:50:49;;;;;;;4.25;2.65;;;;;;;19.71;27.87;101395.78;5058748;28;20053;-77
2023/06/15 02:53:21;;;;;;;3.90;3.03;;;;;;;19.67;27.41;101400.00;5058806;28;20041;-77
2023/06/15 02:55:53;;;;;;;5.53;3.05;;;;;;;19.65;27.15;101394.59;5054049;28;20053;-77
2023/06/15 02:58:24;;;;;;;5.40;3.10;;;;;;;19.64;27.72;101403.13;5078731;28;20049;-78
2023/06/15 03:01:08;;;;;;;5.18;2.80;;;;;;;19.59;27.44;101395.34;5057247;28;20067;-78
2023/06/15 03:03:44;;;;;;;5.22;2.67;;;;;;;19.59;27.58;101400.03;5057798;28;20555;-79
2023/06/15 03:06:14;;;;;;;4.70;2.72;;;;;;;19.58;28.06;101396.38;5049448;28;20049;-78
2023/06/15 03:08:44;;;;;;;4.00;2.92;;;;;;;19.57;27.41;101397.44;5061393;28;20102;-78
2023/06/15 03:11:33;;;;;;;6.05;3.10;;;;;;;19.51;27.49;101400.94;5057610;28;20107;-78
2023/06/15 03:14:01;;;;;;;5.10;2.92;;;;;;;19.48;27.64;101398.50;5060372;28;20041;-78
2023/06/15 03:16:39;;;;;;;4.45;2.70;;;;;;;19.49;27.75;101399.38;5065056;28;20061;-78
2023/06/15 03:19:08;;;;;;;4.55;2.92;;;;;;;19.42;27.56;101402.00;5061653;28;20065;-79
2023/06/15 03:21:37;;;;;;;3.63;2.92;;;;;;;19.44;27.93;101407.38;5056918;28;20437;-78
2023/06/15 03:24:08;;;;;;;4.60;2.90;;;;;;;19.44;27.60;101410.16;5079648;28;20041;-78
2023/06/15 03:26:37;;;;;;;3.72;2.60;;;;;;;19.41;27.80;101408.59;5057777;28;20055;-78
2023/06/15 03:29:05;;;;;;;4.55;2.92;;;;;;;19.39;27.77;101402.34;5084073;28;20075;-78
2023/06/15 03:31:40;;;;;;;4.88;2.70;;;;;;;19.39;27.95;101401.47;5070629;28;20049;-79
2023/06/15 03:34:09;;;;;;;4.20;3.00;;;;;;;19.38;27.71;101408.09;5066938;28;20056;-79
2023/06/15 03:36:39;;;;;;;4.85;2.85;;;;;;;19.38;28.16;101406.16;5068421;28;20064;-78
2023/06/15 03:39:07;;;;;;;5.07;2.83;;;;;;;19.36;28.25;101408.28;5068419;28;20057;-78
2023/06/15 03:41:37;;;;;;;5.22;3.08;;;;;;;19.36;28.01;101410.19;5065846;28;20538;-78
2023/06/15 03:44:05;;;;;;;4.90;2.78;;;;;;;19.35;27.86;101419.56;5083303;28;20056;-78
2023/06/15 03:46:33;;;;;;;5.25;2.92;;;;;;;19.34;28.37;101404.81;5062955;28;20048;-79
2023/06/15 03:49:02;;;;;;;4.10;2.60;;;;;;;19.34;28.06;101415.91;5083098;28;20048;-79
2023/06/15 03:51:30;;;;;;;5.00;3.10;;;;;;;19.33;28.17;101404.97;5058931;28;20128;-78
2023/06/15 03:54:00;;;;;;;5.47;3.00;;;;;;;19.35;28.59;101412.09;5067609;28;20467;-79
2023/06/15 03:56:28;;;;;;;5.75;3.13;;;;;;;19.33;28.14;101418.84;5070938;28;20045;-77
2023/06/15 03:58:56;;;;;;;3.63;2.65;;;;;;;19.31;28.33;101412.63;5072545;28;20033;-78
2023/06/15 04:01:25;;;;;;;5.47;3.05;;;;;;;19.32;28.57;101420.75;5079562;28;20632;-77
2023/06/15 04:03:54;;;;;;;4.75;2.83;;;;;;;19.32;28.34;101418.00;5062089;28;20576;-78
2023/06/15 04:06:23;;;;;;;4.63;3.08;;;;;;;19.31;28.59;101430.13;5060576;28;20056;-78
2023/06/15 04:08:51;;;;;;;4.95;2.78;;;;;;;19.31;28.38;101423.72;5060827;28;20051;-78
2023/06/15 04:11:25;;;;;;;5.37;2.83;;;;;;;19.30;28.42;101430.31;5064596;28;20052;-78
2023/06/15 04:13:53;;;;;;;4.82;2.60;;;;;;;19.29;28.58;101432.25;5082067;28;20037;-79
2023/06/15 04:16:21;;;;;;;4.40;3.00;;;;;;;19.25;28.59;101415.06;5083422;28;20114;-79
2023/06/15 04:18:51;;;;;;;5.03;3.00;;;;;;;19.27;29.06;101429.66;5063104;28;20040;-78
2023/06/15 04:21:19;;;;;;;4.57;3.20;;;;;;;19.27;29.11;101434.31;5064297;28;20128;-79
2023/06/15 04:23:47;;;;;;;4.60;2.72;;;;;;;19.27;29.20;101431.56;5060228;28;20051;-78
2023/06/15 04:26:15;;;;;;;4.20;2.85;;;;;;;19.25;28.87;101437.28;5061254;28;20079;-79
2023/06/15 04:28:45;;;;;;;3.95;2.70;;;;;;;19.28;29.36;101438.84;5066415;28;20064;-77
2023/06/15 04:31:17;;;;;;;4.88;2.60;;;;;;;19.26;28.89;101443.69;5068025;28;20097;-79
2023/06/15 04:33:47;;;;;;;3.92;2.80;;;;;;;19.25;29.43;101441.94;5079172;28;20037;-78
2023/06/15 04:36:16;;;;;;;6.20;3.10;;;;;;;19.27;29.38;101446.28;5063496;28;20041;-78
2023/06/15 04:38:48;;;;;;;4.25;3.00;;;;;;;19.27;28.96;101437.97;5059230;28;20067;-79
2023/06/15 04:41:22;;;;;;;6.38;3.13;;;;;;;19.29;29.00;101443.34;5061036;28;20115;-78
2023/06/15 04:44:00;;;;;;;5.00;3.60;;;;;;;19.31;29.06;101448.69;5064393;28;20148;-78
2023/06/15 04:46:29;;;;;;;4.88;3.28;;;;;;;19.30;29.07;101446.97;5073810;28;20120;-79
2023/06/15 04:48:58;;;;;;;5.55;3.38;;;;;;;19.31;29.13;101451.47;5074614;28;20072;-78
2023/06/15 04:51:25;;;;;;;5.07;3.10;;;;;;;19.34;29.00;101452.00;5068550;28;20132;-78
2023/06/15 04:53:54;;;;;;;4.20;3.10;;;;;;;19.36;29.03;101451.81;5085806;28;20052;-79
2023/06/15 04:56:23;;;;;;;5.57;3.42;;;;;;;19.37;29.35;101453.56;5067615;28;20053;-77
2023/06/15 04:58:52;;;;;;;5.38;3.40;;;;;;;19.40;29.03;101456.81;5085599;28;20036;-78
2023/06/15 05:01:22;;;;;;;5.30;3.35;;;;;;;19.42;29.18;101451.97;5061945;28;20375;-78
2023/06/15 05:03:51;;;;;;;6.10;3.45;;;;;;;19.43;29.68;101453.72;5066638;28;20049;-77
2023/06/15 05:06:19;;;;;;;5.35;3.40;;;;;;;19.49;29.53;101466.88;5064751;28;20056;-77
2023/06/15 05:08:47;;;;;;;6.07;3.97;;;;;;;19.56;29.25;101467.88;5074776;28;20151;-78
2023/06/15 05:11:15;;;;;;;5.38;3.83;;;;;;;19.70;29.27;101469.06;5064592;28;20048;-78
2023/06/15 05:13:44;;;;;;;6.75;4.38;;;;;;;19.83;29.13;101474.03;5058080;28;20058;-77
2023/06/15 05:16:12;;;;;;;6.72;4.00;;;;;;;20.00;29.25;101471.03;5065014;28;20053;-78
2023/06/15 05:18:42;;;;;;;7.07;3.95;;;;;;;20.21;29.17;101475.06;5075678;28;20555;-79
2023/06/15 05:21:12;;;;;;;6.22;3.97;;;;;;;20.39;28.63;101470.97;5071747;28;20041;-79
2023/06/15 05:23:40;;;;;;;6.38;3.80;;;;;;;20.57;28.68;101465.09;5079742;28;20041;-79
2023/06/15 05:26:10;;;;;;;6.32;4.07;;;;;;;20.82;28.36;101476.06;5061885;28;20055;-78
2023/06/15 05:28:57;;;;;;;8.02;3.95;;;;;;;21.06;28.40;101476.72;5061699;28;20045;-77
2023/06/15 05:31:26;;;;;;;7.53;3.78;;;;;;;21.32;28.26;101467.97;5072814;28;20385;-80
2023/06/15 05:33:57;;;;;;;7.32;3.78;;;;;;;21.60;27.70;101470.09;5057407;28;20090;-78
2023/06/15 05:36:30;;;;;;;5.82;3.60;;;;;;;21.82;27.05;101475.56;5065932;28;20037;-81
2023/06/15 05:39:19;;;;;;;5.97;3.47;;;;;;;22.09;27.05;101471.22;5061105;28;20044;-80
2023/06/15 05:41:47;;;;;;;4.90;3.58;;;;;;;22.37;26.80;101478.81;5074756;28;20526;-78
2023/06/15 05:44:16;;;;;;;5.80;3.50;;;;;;;22.60;26.96;101480.41;5062847;28;20068;-78
2023/06/15 05:46:44;;;;;;;6.55;3.35;;;;;;;22.82;26.39;101475.72;5058063;28;20052;-79
2023/06/15 05:49:15;;;;;;;5.18;3.40;;;;;;;23.07;25.77;101478.94;5050383;28;20040;-80
2023/06/15 05:51:43;;;;;;;5.50;3.38;;;;;;;23.25;25.97;101478.47;5058024;28;20459;-81
2023/06/15 05:54:11;;;;;;;5.13;3.00;;;;;;;23.43;25.29;101476.00;5060671;28;20467;-79
2023/06/15 05:56:39;;;;;;;6.45;3.17;;;;;;;23.61;24.91;101483.84;5063169;28;20057;-79
2023/06/15 05:59:08;;;;;;;5.55;3.30;;;;;;;23.73;24.78;101485.03;5063217;28;20055;-79
2023/06/15 06:01:56;;;;;;;4.57;3.00;;;;;;;23.85;24.72;101482.53;5058787;28;20435;-79
2023/06/15 06:04:26;;;;;;;5.05;2.90;;;;;;;23.99;24.49;101485.16;5061080;28;20462;-78
2023/06/15 06:06:54;;;;;;;4.57;2.80;;;;;;;24.04;24.32;101488.22;5066842;28;20056;-80
2023/06/15 06:09:23;;;;;;;4.72;3.20;;;;;;;24.11;24.33;101486.31;5076273;28;20752;-80
2023/06/15 06:11:51;;;;;;;5.22;2.67;;;;;;;24.19;24.37;101482.47;5065540;28;20036;-79
2023/06/15 06:14:19;;;;;;;3.83;2.65;;;;;;;24.27;24.44;101484.22;5061853;28;20116;-81
2023/06/15 06:16:48;;;;;;;4.47;3.17;;;;;;;24.34;24.11;101485.09;5080658;28;20052;-79
2023/06/15 06:19:16;;;;;;;4.18;2.92;;;;;;;24.42;24.06;101483.00;5067381;28;20134;-78
2023/06/15 06:21:46;;;;;;;4.40;2.70;;;;;;;24.55;24.15;101492.53;5057908;28;20049;-79
2023/06/15 06:24:15;;;;;;;5.90;2.97;;;;;;;24.59;23.99;101486.28;5079356;28;20032;-79
2023/06/15 06:26:48;;;;;;;5.40;2.78;;;;;;;24.69;24.13;101483.94;5068088;28;20037;-79
2023/06/15 06:29:16;;;;;;;6.57;2.95;;;;;;;24.78;23.69;101484.59;5069652;28;20033;-81
2023/06/15 06:31:44;;;;;;;4.78;3.15;;;;;;;24.88;23.77;101487.84;5065194;28;20104;-78
2023/06/15 06:34:12;;;;;;;4.38;2.97;;;;;;;24.97;23.51;101495.00;5062097;28;20072;-79
2023/06/15 06:36:40;;;;;;;4.35;2.90;;;;;;;25.05;23.35;101482.72;5078791;28;20444;-80
2023/06/15 06:39:09;;;;;;;5.28;2.90;;;;;;;25.15;23.31;101494.34;5061079;28;20383;-78
2023/06/15 06:41:37;;;;;;;5.97;3.00;;;;;;;25.23;23.32;101496.91;5074186;28;20064;-77
2023/06/15 06:44:05;;;;;;;4.72;2.80;;;;;;;25.31;23.23;101493.06;5072236;28;20049;-79
2023/06/15 06:46:33;;;;;;;4.38;2.70;;;;;;;25.38;23.06;101500.38;5063340;28;20049;-78
2023/06/15 06:49:01;;;;;;;5.68;3.15;;;;;;;25.44;22.79;101495.84;5064067;28;20044;-77
2023/06/15 06:51:29;;;;;;;4.53;2.50;;;;;;;25.50;22.73;101493.03;5068041;28;20128;-79
2023/06/15 06:53:57;;;;;;;4.70;2.88;;;;;;;25.56;22.35;101494.97;5064661;28;20045;-80
2023/06/15 06:56:27;;;;;;;4.40;3.00;;;;;;;25.65;22.43;101492.81;5066071;28;20051;-80
2023/06/15 06:58:55;;;;;;;4.32;2.90;;;;;;;25.70;22.62;101494.97;5064323;28;20082;-78
2023/06/15 07:01:23;;;;;;;4.97;2.80;;;;;;;25.77;22.41;101498.63;5072354;28;20056;-80
2023/06/15 07:03:51;;;;;;;6.00;2.75;;;;;;;25.83;22.24;101492.13;5064046;28;20048;-77
2023/06/15 07:06:19;;;;;;;5.82;3.17;;;;;;;25.88;21.90;101495.13;5077676;28;20499;-78
2023/06/15 07:08:47;;;;;;;4.45;2.83;;;;;;;25.93;22.02;101498.13;5080495;28;20049;-77
2023/06/15 07:11:15;;;;;;;5.13;2.85;;;;;;;25.99;22.30;101500.03;5051962;28;20528;-77
2023/06/15 07:13:45;;;;;;;5.65;3.00;;;;;;;26.04;21.95;101502.19;5060781;28;20045;-78
2023/06/15 07:16:13;;;;;;;6.15;2.80;;;;;;;26.07;22.07;101501.78;5072754;28;20052;-78
2023/06/15 07:18:41;;;;;;;5.85;2.80;;;;;;;26.12;22.01;101504.78;5052812;28;20048;-78
2023/06/15 07:21:09;;;;;;;4.63;2.80;;;;;;;26.17;21.81;101494.63;5051444;28;20061;-78
2023/06/15 07:23:37;;;;;;;3.92;2.70;;;;;;;26.24;21.90;101503.00;5058289;28;20051;-78
2023/06/15 07:26:11;;;;;;;4.18;2.63;;;;;;;26.29;21.81;101501.28;5055946;28;20076;-78
2023/06/15 07:28:39;;;;;;;5.93;2.70;;;;;;;26.36;22.07;101501.22;5075826;28;20136;-79
2023/06/15 07:31:08;;;;;;;4.13;2.72;;;;;;;26.45;22.09;101507.44;5059448;28;20112;-79
2023/06/15 07:33:36;;;;;;;6.30;2.72;;;;;;;26.49;21.80;101491.84;5051865;28;20543;-77
2023/06/15 07:36:04;;;;;;;5.22;2.70;;;;;;;26.57;21.46;101502.81;5069366;28;20103;-79
2023/06/15 07:38:32;;;;;;;5.75;2.88;;;;;;;26.64;21.73;101501.72;5050700;28;20044;-77
2023/06/15 07:41:00;;;;;;;4.47;3.00;;;;;;;26.69;21.32;101499.13;5058423;28;20122;-80
2023/06/15 07:43:28;;;;;;;3.88;2.50;;;;;;;26.76;21.27;101499.06;5045401;28;20110;-79
2023/06/15 07:45:56;;;;;;;5.00;2.60;;;;;;;26.83;20.74;101499.88;5049246;28;20056;-79
2023/06/15 07:48:25;;;;;;;5.15;2.35;;;;;;;26.90;20.48;101500.69;5072408;28;20072;-80
2023/06/15 07:50:53;;;;;;;4.53;2.80;;;;;;;26.93;20.08;101493.78;5054057;28;20111;-80
2023/06/15 07:53:21;;;;;;;6.38;2.60;;;;;;;26.96;20.41;101502.59;5056631;28;20048;-80
2023/06/15 07:55:49;;;;;;;5.28;2.78;;;;;;;26.99;19.96;101499.31;5053617;28;20059;-79
2023/06/15 07:58:17;;;;;;;5.55;3.22;;;;;;;27.02;20.41;101500.84;5051536;28;20037;-77
2023/06/15 08:00:45;;;;;;;4.63;2.67;;;;;;;27.07;20.00;101501.00;5050255;28;20541;-77
2023/06/15 08:03:13;;;;;;;5.00;2.80;;;;;;;27.10;20.20;101497.75;5048896;28;20306;-79
2023/06/15 08:05:42;;;;;;;5.00;2.72;;;;;;;27.17;20.13;101492.97;5052504;28;20354;-80
2023/06/15 08:08:10;;;;;;;5.65;2.95;;;;;;;27.21;20.07;101497.00;5052751;28;20247;-79
2023/06/15 08:10:39;;;;;;;4.97;2.70;;;;;;;27.26;19.93;101499.16;5055467;28;20078;-79
2023/06/15 08:13:09;;;;;;;4.28;2.58;;;;;;;27.31;19.85;101490.88;5053324;28;20108;-79
2023/06/15 08:15:37;;;;;;;4.30;2.40;;;;;;;27.37;19.57;101489.94;5054058;28;20044;-79
2023/06/15 08:18:05;;;;;;;4.25;2.50;;;;;;;27.43;20.09;101494.66;5055182;28;20052;-79
2023/06/15 08:20:33;;;;;;;3.85;2.50;;;;;;;27.49;19.80;101493.72;5053868;28;20052;-79
2023/06/15 08:23:02;;;;;;;5.50;3.08;;;;;;;27.57;19.59;101490.63;5060008;28;20044;-79
2023/06/15 08:25:33;;;;;;;4.38;2.70;;;;;;;27.59;19.36;101487.59;5052041;28;20107;-80
2023/06/15 08:28:01;;;;;;;4.70;2.70;;;;;;;27.63;19.89;101484.06;5080780;28;20049;-77
2023/06/15 08:30:29;;;;;;;4.32;2.83;;;;;;;27.70;19.06;101484.88;5058957;28;20100;-79
2023/06/15 08:32:57;;;;;;;4.38;2.70;;;;;;;27.75;19.16;101487.88;5061605;28;20037;-77
2023/06/15 08:35:25;;;;;;;4.27;2.43;;;;;;;27.80;19.11;101481.53;5001692;28;1211941;-79
2023/06/15 08:37:53;;;;;;;4.82;2.67;;;;;;;27.86;18.89;101486.25;5058507;28;20091;-78
2023/06/15 08:40:23;;;;;;;4.75;2.65;;;;;;;27.94;18.88;101477.50;5057355;28;20036;-78
2023/06/15 08:42:52;;;;;;;4.40;2.78;;;;;;;27.99;18.55;101477.63;5058895;28;20041;-79
2023/06/15 08:45:20;;;;;;;5.53;2.45;;;;;;;28.04;18.82;101472.16;5072874;28;20087;-79
2023/06/15 08:47:48;;;;;;;6.60;2.88;;;;;;;28.10;18.63;101467.56;5059707;28;20045;-77
2023/06/15 08:50:16;;;;;;;5.13;2.70;;;;;;;28.17;18.84;101469.19;5056566;28;20033;-78
2023/06/15 08:52:45;;;;;;;4.53;2.58;;;;;;;28.24;18.70;101471.94;5060021;28;20071;-79
2023/06/15 08:55:16;;;;;;;5.25;2.72;;;;;;;28.30;18.27;101472.94;5074651;28;20071;-77
2023/06/15 08:57:45;;;;;;;4.93;2.60;;;;;;;28.36;18.25;101472.81;5077868;28;20040;-77
2023/06/15 09:00:16;;;;;;;5.63;2.85;;;;;;;28.44;17.84;101472.50;5050616;28;20037;-78
2023/06/15 09:02:46;;;;;;;6.18;2.90;;;;;;;28.49;18.02;101477.44;5066495;28;20043;-80
2023/06/15 09:05:14;;;;;;;3.88;2.60;;;;;;;28.57;18.00;101468.66;5059911;28;20037;-79
2023/06/15 09:07:42;;;;;;;3.75;2.65;;;;;;;28.61;18.16;101469.88;5066614;28;20047;-78
2023/06/15 09:10:11;;;;;;;4.85;2.65;;;;;;;28.68;17.71;101475.44;5073633;28;20510;-80
2023/06/15 09:12:43;;;;;;;3.47;2.50;;;;;;;28.73;17.58;101478.41;5061958;28;20044;-80
2023/06/15 09:15:18;;;;;;;3.85;2.90;;;;;;;28.74;17.04;101466.03;5076795;28;20049;-80
2023/06/15 09:17:46;;;;;;;4.57;2.55;;;;;;;28.71;17.62;101458.03;5059337;28;20052;-79
2023/06/15 09:20:15;;;;;;;4.80;2.70;;;;;;;28.74;17.70;101460.41;5063891;28;20037;-79
2023/06/15 09:25:59;;;;;;;7.13;2.43;;;;;;;28.71;17.15;101452.38;5060977;28;20108;-80
2023/06/15 09:28:28;;;;;;;4.72;2.30;;;;;;;28.75;16.67;101454.53;5081472;28;20043;-79
2023/06/15 09:31:30;;;;;;;4.18;2.47;;;;;;;28.71;16.13;101450.44;5041102;28;20044;-79
2023/06/15 09:34:02;;;;;;;3.72;2.50;;;;;;;28.72;16.55;101454.97;5058044;28;20040;-79
2023/06/15 09:36:35;;;;;;;4.18;2.40;;;;;;;28.71;16.12;101461.69;5018255;28;20045;-79
2023/06/15 09:39:09;;;;;;;4.20;2.30;;;;;;;28.69;15.75;101451.75;5052603;28;20049;-80
2023/06/15 09:41:54;;;;;;;4.55;2.80;;;;;;;28.67;16.02;101454.00;5052173;28;20045;-78
2023/06/15 09:44:22;;;;;;;4.72;2.70;;;;;;;28.66;16.25;101450.31;5062343;28;20124;-78
2023/06/15 09:46:52;;;;;;;3.83;2.60;;;;;;;28.70;16.20;101450.66;5075025;28;20113;-79
2023/06/15 09:49:22;;;;;;;9.43;3.13;;;;;;;28.70;15.99;101454.34;5061906;28;20037;-79
2023/06/15 09:51:51;;;;;;;3.70;2.38;;;;;;;28.70;15.69;101450.66;5077243;28;20052;-79
2023/06/15 09:54:22;;;;;;;4.47;2.47;;;;;;;28.69;15.56;101455.44;5062730;28;20040;-79
2023/06/15 09:56:52;;;;;;;4.20;2.70;;;;;;;28.62;15.36;101444.28;5057624;28;20033;-79
2023/06/15 09:59:21;;;;;;;5.13;2.90;;;;;;;28.60;15.40;101456.91;5060527;28;20086;-78
2023/06/15 10:01:55;;;;;;;5.85;2.80;;;;;;;28.51;14.82;101459.22;5058590;28;20052;-79
2023/06/15 10:04:26;;;;;;;4.32;2.60;;;;;;;28.43;14.95;101453.06;5058095;28;20052;-79
2023/06/15 10:07:00;;;;;;;4.07;2.55;;;;;;;28.30;15.03;101451.28;5063830;28;20080;-79
2023/06/15 10:09:32;;;;;;;3.92;2.88;;;;;;;28.23;15.63;101453.31;5058301;28;20071;-79
2023/06/15 10:12:06;;;;;;;;;;;;;;;27.84;15.93;101449.91;5062733;28;20060;-79
2023/06/15 10:14:38;;;;;;;4.00;2.70;;;;;;;28.04;15.34;101451.59;5071549;28;20446;-79
2023/06/15 10:17:10;;;;;;;3.13;2.42;;;;;;;28.00;15.22;101442.78;5059680;28;20041;-79
2023/06/15 10:19:43;;;;;;;4.70;2.58;;;;;;;27.92;15.67;101451.53;5062254;28;20040;-79
2023/06/15 10:22:16;;;;;;;4.38;2.50;;;;;;;27.91;15.34;101455.44;5060427;28;20044;-78
2023/06/15 10:24:45;;;;;;;3.65;2.67;;;;;;;27.84;15.66;101458.34;5062746;28;20049;-79
2023/06/15 10:27:15;;;;;;;3.78;2.53;;;;;;;27.81;15.56;101447.53;5060753;28;20584;-79
2023/06/15 10:29:56;;;;;;;3.90;2.60;;;;;;;27.81;15.69;101449.50;5058270;28;20053;-78
2023/06/15 10:32:38;;;;;;;3.78;2.70;;;;;;;27.80;15.36;101451.44;5058410;28;20068;-78
2023/06/15 10:35:12;;;;;;;3.90;2.78;;;;;;;27.81;15.36;101447.53;5075276;28;20099;-78
2023/06/15 10:37:47;;;;;;;3.80;2.30;;;;;;;27.83;15.42;101451.00;5057339;28;20124;-79
2023/06/15 10:40:22;;;;;;;4.40;2.63;;;;;;;27.86;15.30;101458.94;5069176;28;20045;-79
2023/06/15 10:42:52;;;;;;;4.65;2.95;;;;;;;27.87;15.52;101457.84;5059950;28;20040;-79
2023/06/15 10:45:31;;;;;;;4.30;2.72;;;;;;;27.95;15.21;101455.81;5053881;28;20163;-80
2023/06/15 10:48:02;;;;;;;3.78;2.70;;;;;;;27.98;15.82;101452.53;5072817;28;20040;-78
2023/06/15 10:50:41;;;;;;;3.95;2.60;;;;;;;28.02;15.69;101439.72;5055697;28;20048;-79
2023/06/15 10:53:21;;;;;;;4.15;2.60;;;;;;;28.09;15.97;101440.50;5066077;28;20044;-78
2023/06/15 10:55:54;;;;;;;4.50;2.80;;;;;;;28.17;15.17;101443.00;5060258;28;20048;-77
2023/06/15 10:58:24;;;;;;;4.28;2.35;;;;;;;28.22;15.29;101441.19;5078735;28;20064;-78
2023/06/15 11:01:08;;;;;;;4.65;2.67;;;;;;;28.34;15.35;101437.59;5056972;28;20063;-79
2023/06/15 11:03:41;;;;;;;3.92;2.88;;;;;;;28.44;15.50;101441.53;5055674;28;20040;-79
2023/06/15 11:06:15;;;;;;;5.47;2.83;;;;;;;28.53;14.67;101459.81;5071249;28;20375;-80
2023/06/15 11:08:48;;;;;;;4.18;3.08;;;;;;;28.60;14.50;101443.66;5049631;28;20053;-79
2023/06/15 11:11:19;;;;;;;4.15;2.70;;;;;;;28.63;14.76;101433.88;5060441;28;20127;-79
2023/06/15 11:13:59;;;;;;;3.53;2.60;;;;;;;28.72;15.08;101437.22;5052383;28;20044;-80
2023/06/15 11:16:30;;;;;;;5.10;2.80;;;;;;;28.79;15.31;101438.00;5053450;28;20057;-80
2023/06/15 11:19:24;;;;;;;4.00;2.78;;;;;;;28.81;14.99;101435.81;5053372;28;20106;-80
2023/06/15 11:22:01;;;;;;;3.67;2.60;;;;;;;28.92;15.22;101435.84;5050786;28;20612;-79
2023/06/15 11:24:36;;;;;;;4.97;2.85;;;;;;;29.01;15.10;101435.47;5054336;28;20029;-79
2023/06/15 11:27:06;;;;;;;4.65;3.10;;;;;;;29.06;14.76;101425.19;5062302;28;20053;-78
2023/06/15 11:29:37;;;;;;;4.03;2.85;;;;;;;29.16;14.58;101422.63;5054632;28;20091;-80
2023/06/15 11:32:11;;;;;;;4.18;2.90;;;;;;;29.20;14.99;101420.16;5056414;28;20036;-79
2023/06/15 11:34:41;;;;;;;4.18;2.97;;;;;;;29.31;14.77;101419.34;5055617;28;20033;-79
2023/06/15 11:37:12;;;;;;;5.15;2.75;;;;;;;29.36;14.50;101423.13;5064474;28;20044;-80
2023/06/15 11:39:44;;;;;;;5.03;2.95;;;;;;;29.48;14.27;101419.44;5057391;28;20056;-80
2023/06/15 11:42:12;;;;;;;5.38;2.90;;;;;;;29.51;14.65;101416.97;5059765;28;20052;-80